Nederlandse vliegveldverwachtingen (TAF)

Luchtvaartmeteorologische informatie voor operationeel gebruik en vluchtvoorbereiding is beschikbaar op www.luchtvaartmeteo.nl.

ZCZC
FT261100 EHLE     LELYSTAD/LELYSTAD   NLD   -3 m.
TAF EHLE 261045Z 2612/2718 24015G25KT 9999 SCT025
    BECMG 2620/2622 24012KT SCT020
    PROB40 TEMPO 2621/2701 6000 -RA SCT018 BKN030
    BECMG 2700/2702 29013KT CAVOK=

ZCZC
FT261100 EHAM     AMSTERDAM/SCHIPHOL   NLD   -3 m.
TAF EHAM 261046Z 2612/2718 25015G25KT 9999 SCT025
    BECMG 2620/2622 24012KT SCT020
    PROB40 TEMPO 2621/2624 6000 -RA SCT018 BKN030
    BECMG 2623/2702 29013KT CAVOK
    TEMPO 2711/2717 30015G25KT=

ZCZC
FT261100 EHRD     ROTTERDAM/THE HAGUE AIRPORT   NLD   -5 m.
TAF EHRD 261045Z 2612/2718 24015G25KT 9999 SCT025
    BECMG 2620/2622 24012KT SCT020
    PROB40 TEMPO 2621/2701 6000 -RA SCT018 BKN030
    BECMG 2700/2702 29013KT CAVOK=

ZCZC
FT261100 EHGG     GRONINGEN/EELDE   NLD   5 m.
TAF EHGG 261107Z 2612/2718 25015G25KT 9999 SCT040
    BECMG 2615/2618 23012KT
    TEMPO 2620/2623 6000 RA -SHRA BKN014 FEW018TCU
    BECMG 2621/2624 27010KT
    BECMG 2707/2710 28017G27KT
    PROB30 TEMPO 2715/2718 7000 -SHRA FEW020CB BKN030=

ZCZC
FT261100 EHBK     MAASTRICHT/MAASTRICHT-AACHEN   NLD   114 m.
TAF EHBK 261108Z 2612/2718 24012KT 9999 BKN030
    PROB40 TEMPO 2704/2710 6000 -RADZ BKN012
    BECMG 2707/2710 30012KT=

ZCZC
FT261100 EHEH     EINDHOVEN/EINDHOVEN   NLD   22 m.
TAF EHEH 261139Z 2612/2718 25012KT 9999 SCT030
    TEMPO 2612/2616 25012G23KT
    TEMPO 2700/2705 4500 -RADZ FEW012 BKN016 BKN023
    BECMG 2702/2704 29008KT
    BECMG 2709/2711 29012G25KT
    BECMG 2712/2714 31012G25KT=

ZCZC
FC261300 EHKD     DE KOOY/DE KOOY   NLD   1 m.
TAF EHKD 261212Z 2613/2701 25015KT 9999 FEW012 SCT030
    TEMPO 2614/2617 23015G27KT
    TEMPO 2618/2623 4500 -RADZ FEW012 BKN016 OVC022
    BECMG 2623/2701 30012KT=

ZCZC
FC261300 EHGR     GILZE-RIJEN/GILZE-RIJEN   NLD   14 m.
TAF EHGR 261300Z NIL=

ZCZC
FC261300 EHLW     LEEUWARDEN/LEEUWARDEN   NLD   1 m.
TAF EHLW 261212Z 2613/2701 26014KT FEW012 SCT025
    BECMG 2615/2617 23012KT
    BECMG 2619/2621 27015KT
    TEMPO 2619/2622 4500 -RADZ FEW012 BKN016 OVC022
    BECMG 2623/2701 30010KT=

ZCZC
FC261300 EHVK     VOLKEL/VOLKEL   NLD   21 m.
TAF EHVK 261212Z 2613/2701 25012KT 9999 SCT030
    TEMPO 2613/2616 26012G22KT
    TEMPO 2623/2701 4500 -RADZ FEW012 BKN016 OVC022=

ZCZC
FC261300 EHWO     WOENSDRECHT/WOENSDRECHT   NLD   19 m.
TAF EHWO 261300Z NIL=

26/05/2022 15.15 uur LT